createdAt,value
2023-03-15T00:00:37.236Z,11.76
2023-03-15T00:05:56.784Z,11.63
2023-03-15T00:11:01.311Z,11.55
2023-03-15T00:16:05.398Z,11.41
2023-03-15T00:21:08.839Z,11.32
2023-03-15T00:26:13.220Z,11.10
2023-03-15T00:31:16.930Z,10.79
2023-03-15T00:36:25.348Z,10.55
2023-03-15T00:41:28.950Z,10.43
2023-03-15T00:46:32.312Z,10.36
2023-03-15T00:51:37.837Z,10.18
2023-03-15T00:56:42.010Z,9.91
2023-03-15T01:01:45.633Z,9.62
2023-03-15T01:06:54.604Z,9.47
2023-03-15T01:11:59.162Z,9.35
2023-03-15T01:17:02.791Z,9.20
2023-03-15T01:22:06.069Z,9.03
2023-03-15T01:27:09.478Z,8.87
2023-03-15T01:32:13.103Z,8.76
2023-03-15T01:37:17.568Z,8.61
2023-03-15T01:42:21.852Z,8.30
2023-03-15T01:47:26.408Z,7.97
2023-03-15T01:52:36.280Z,7.78
2023-03-15T01:57:56.378Z,7.53
2023-03-15T02:03:17.822Z,7.35
2023-03-15T02:08:27.665Z,7.19
2023-03-15T02:13:35.460Z,7.11
2023-03-15T02:18:42.532Z,7.01
2023-03-15T02:23:51.792Z,6.92
2023-03-15T02:28:56.149Z,6.89
2023-03-15T02:33:59.673Z,6.83
2023-03-15T02:39:17.733Z,6.79
2023-03-15T02:44:29.536Z,6.74
2023-03-15T02:49:39.103Z,6.63
2023-03-15T02:54:43.886Z,6.58
2023-03-15T02:59:47.701Z,6.52
2023-03-15T03:04:55.486Z,6.47
2023-03-15T03:10:01.243Z,6.42
2023-03-15T03:15:08.735Z,6.50
2023-03-15T03:20:14.083Z,6.47
2023-03-15T03:25:21.714Z,6.48
2023-03-15T03:30:25.804Z,6.48
2023-03-15T03:35:29.281Z,6.42
2023-03-15T03:40:33.015Z,6.39
2023-03-15T03:45:37.211Z,6.36
2023-03-15T03:50:41.919Z,6.39
2023-03-15T03:55:46.595Z,6.40
2023-03-15T04:00:56.925Z,6.45
2023-03-15T04:06:01.065Z,6.50
2023-03-15T04:11:05.677Z,6.38
2023-03-15T04:16:11.832Z,6.31
2023-03-15T04:21:32.170Z,6.32
2023-03-15T04:26:50.509Z,6.26
2023-03-15T04:32:05.076Z,6.30
2023-03-15T04:37:22.619Z,6.35
2023-03-15T04:42:56.641Z,6.34
2023-03-15T04:48:18.105Z,6.24
2023-03-15T04:53:44.317Z,6.24
2023-03-15T04:59:13.221Z,6.27
2023-03-15T05:04:31.738Z,6.29
2023-03-15T05:09:58.821Z,6.24
2023-03-15T05:15:23.762Z,6.17
2023-03-15T05:20:50.888Z,6.18
2023-03-15T05:26:25.049Z,6.17
2023-03-15T05:31:45.702Z,6.12
2023-03-15T05:37:06.909Z,6.16
2023-03-15T05:42:38.494Z,6.25
2023-03-15T05:47:56.977Z,6.25
2023-03-15T05:53:11.273Z,6.29
2023-03-15T05:58:21.602Z,6.43
2023-03-15T06:03:42.425Z,6.52
2023-03-15T06:08:50.765Z,6.42
2023-03-15T06:13:54.766Z,6.41
2023-03-15T06:19:14.451Z,6.40
2023-03-15T06:24:18.107Z,6.47
2023-03-15T06:29:23.024Z,6.43
2023-03-15T06:34:26.362Z,6.45
2023-03-15T06:39:30.629Z,6.44
2023-03-15T06:44:35.128Z,6.44
2023-03-15T06:49:44.357Z,6.45
2023-03-15T06:54:48.521Z,6.44
2023-03-15T06:59:54.233Z,6.49
2023-03-15T07:04:57.624Z,6.37
2023-03-15T07:10:03.192Z,6.42
2023-03-15T07:15:07.098Z,6.45
2023-03-15T07:20:11.645Z,6.44
2023-03-15T07:25:15.407Z,6.42
2023-03-15T07:30:20.529Z,6.51
2023-03-15T07:35:23.917Z,6.53
2023-03-15T07:40:27.457Z,6.62
2023-03-15T07:45:31.028Z,6.66
2023-03-15T07:50:35.018Z,6.77
2023-03-15T07:55:38.773Z,6.83
2023-03-15T08:00:42.507Z,6.90
2023-03-15T08:05:45.927Z,7.02
2023-03-15T08:10:55.147Z,7.08
2023-03-15T08:15:58.818Z,7.02
2023-03-15T08:21:02.734Z,7.01
2023-03-15T08:26:06.691Z,7.07
2023-03-15T08:31:10.605Z,7.09
2023-03-15T08:36:14.296Z,7.17
2023-03-15T08:41:17.986Z,7.25
2023-03-15T08:46:22.198Z,7.16
2023-03-15T08:51:26.770Z,7.02
2023-03-15T08:56:32.683Z,7.08
2023-03-15T09:01:36.602Z,7.19
2023-03-15T09:06:41.048Z,7.21
2023-03-15T09:11:45.766Z,7.19
2023-03-15T09:16:49.521Z,7.20
2023-03-15T09:21:53.039Z,7.20
2023-03-15T09:26:56.413Z,7.19
2023-03-15T09:32:02.268Z,7.25
2023-03-15T09:37:06.345Z,7.24
2023-03-15T09:42:50.049Z,7.19
2023-03-15T09:48:05.996Z,7.26
2023-03-15T09:53:28.222Z,7.25
2023-03-15T09:58:32.985Z,7.29
2023-03-15T10:03:48.262Z,7.31
2023-03-15T10:08:56.899Z,7.36
2023-03-15T10:14:47.536Z,7.35
2023-03-15T10:19:56.251Z,7.36
2023-03-15T10:25:27.480Z,7.29
2023-03-15T10:30:33.766Z,7.25
2023-03-15T10:35:38.523Z,7.23
2023-03-15T10:40:54.389Z,7.31
2023-03-15T10:46:12.280Z,7.38
2023-03-15T10:51:25.414Z,7.36
2023-03-15T10:56:34.977Z,7.34
2023-03-15T11:01:38.893Z,7.37
2023-03-15T11:06:46.418Z,7.35
2023-03-15T11:11:54.383Z,7.43
2023-03-15T11:17:00.462Z,7.64
2023-03-15T11:22:04.127Z,7.71
2023-03-15T11:27:14.832Z,7.81
2023-03-15T11:32:24.513Z,7.85
2023-03-15T11:37:49.308Z,7.90
2023-03-15T11:43:08.486Z,7.83
2023-03-15T11:48:18.732Z,7.90
2023-03-15T11:53:27.881Z,7.93
2023-03-15T11:58:45.842Z,8.01
2023-03-15T12:03:49.743Z,8.02
2023-03-15T12:08:55.220Z,8.08
2023-03-15T12:13:58.906Z,8.22
2023-03-15T12:19:11.610Z,8.29
2023-03-15T12:24:28.279Z,8.38
2023-03-15T12:29:35.072Z,8.43
2023-03-15T12:35:11.376Z,8.58
2023-03-15T12:40:23.661Z,8.78
2023-03-15T12:45:28.207Z,8.79
2023-03-15T12:50:48.485Z,8.91
2023-03-15T12:55:59.461Z,8.87
2023-03-15T13:01:16.914Z,8.87
2023-03-15T13:06:35.927Z,8.85
2023-03-15T13:12:30.204Z,8.70
2023-03-15T13:17:49.806Z,8.60
2023-03-15T13:23:27.459Z,8.64
2023-03-15T13:28:40.109Z,8.69
2023-03-15T13:33:51.431Z,8.75
2023-03-15T13:38:57.982Z,8.87
2023-03-15T13:44:06.188Z,8.87
2023-03-15T13:49:13.613Z,8.80
2023-03-15T13:54:19.723Z,8.78
2023-03-15T13:59:33.019Z,8.79
2023-03-15T14:04:38.716Z,8.84
2023-03-15T14:09:42.624Z,8.83
2023-03-15T14:14:51.789Z,8.90
2023-03-15T14:20:07.186Z,8.90
2023-03-15T14:25:22.776Z,8.80
2023-03-15T14:30:26.488Z,8.68
2023-03-15T14:35:32.648Z,8.64
2023-03-15T14:40:38.946Z,8.53
2023-03-15T14:45:48.848Z,8.41
2023-03-15T14:50:52.452Z,8.29
2023-03-15T14:55:55.996Z,8.27
2023-03-15T15:01:00.014Z,8.30
2023-03-15T15:06:05.169Z,8.26
2023-03-15T15:17:20.275Z,8.15
2023-03-15T15:22:24.033Z,8.08
2023-03-15T15:27:27.498Z,8.04
2023-03-15T15:32:34.275Z,8.10
2023-03-15T15:37:37.977Z,8.09
2023-03-15T15:42:41.649Z,8.02
2023-03-15T15:47:45.762Z,8.00
2023-03-15T15:52:52.176Z,8.02
2023-03-15T15:57:56.277Z,8.02
2023-03-15T16:02:59.883Z,7.82
2023-03-15T16:08:05.299Z,7.69
2023-03-15T16:13:11.848Z,7.61
2023-03-15T16:18:15.400Z,7.60
2023-03-15T16:23:23.002Z,7.66
2023-03-15T16:28:26.756Z,7.60
2023-03-15T16:33:30.354Z,7.54
2023-03-15T16:38:33.989Z,7.52
2023-03-15T16:43:37.418Z,7.55
2023-03-15T16:55:06.170Z,7.53
2023-03-15T17:00:16.998Z,7.51
2023-03-15T17:05:21.176Z,7.52
2023-03-15T17:10:29.488Z,7.48
2023-03-15T17:15:32.740Z,7.45
2023-03-15T17:20:36.139Z,7.43
2023-03-15T17:25:39.396Z,7.35
2023-03-15T17:30:42.832Z,7.24
2023-03-15T17:35:54.288Z,7.16
2023-03-15T17:40:57.717Z,7.10
2023-03-15T17:46:01.121Z,7.08
2023-03-15T17:51:06.162Z,7.06
2023-03-15T17:56:09.918Z,7.04
2023-03-15T18:01:20.188Z,7.01
2023-03-15T18:06:30.061Z,6.98
2023-03-15T18:11:40.531Z,7.03
2023-03-15T18:16:48.542Z,7.02
2023-03-15T18:21:52.229Z,6.97
2023-03-15T18:26:55.918Z,6.94
2023-03-15T18:31:59.268Z,6.99
2023-03-15T18:37:02.736Z,6.92
2023-03-15T18:42:06.341Z,6.84
2023-03-15T18:47:10.071Z,6.77
2023-03-15T18:52:16.142Z,6.76
2023-03-15T18:57:20.816Z,6.75
2023-03-15T19:02:24.364Z,6.87
2023-03-15T19:07:28.589Z,7.00
2023-03-15T19:12:32.119Z,6.97
2023-03-15T19:17:35.457Z,6.94
2023-03-15T19:22:39.705Z,6.88
2023-03-15T19:27:43.885Z,6.84
2023-03-15T19:32:48.296Z,6.81
2023-03-15T19:37:52.148Z,6.83
2023-03-15T19:42:55.756Z,6.77
2023-03-15T19:47:58.930Z,6.82
2023-03-15T19:53:02.312Z,6.90
2023-03-15T19:58:06.517Z,6.83
2023-03-15T20:03:10.058Z,6.77
2023-03-15T20:08:13.514Z,6.68
2023-03-15T20:13:16.978Z,6.62
2023-03-15T20:18:20.143Z,6.60
2023-03-15T20:23:23.578Z,6.54
2023-03-15T20:28:27.192Z,6.46
2023-03-15T20:33:31.498Z,6.41
2023-03-15T20:38:37.401Z,6.38
2023-03-15T20:43:40.975Z,6.35
2023-03-15T20:48:44.126Z,6.25
2023-03-15T20:53:48.231Z,6.19
2023-03-15T20:58:52.116Z,6.12
2023-03-15T21:03:56.551Z,6.10
2023-03-15T21:09:00.401Z,6.04
2023-03-15T21:14:03.887Z,5.98
2023-03-15T21:19:07.235Z,5.97
2023-03-15T21:24:12.706Z,5.94
2023-03-15T21:29:16.042Z,5.90
2023-03-15T21:34:19.388Z,5.82
2023-03-15T21:39:22.794Z,5.76
2023-03-15T21:44:25.922Z,5.75
2023-03-15T21:49:29.438Z,5.73
2023-03-15T21:54:32.611Z,5.68
2023-03-15T21:59:35.778Z,5.63
2023-03-15T22:04:39.183Z,5.61
2023-03-15T22:09:43.540Z,5.61
2023-03-15T22:14:51.724Z,5.61
2023-03-15T22:20:00.155Z,5.61
2023-03-15T22:25:03.615Z,5.62
2023-03-15T22:30:08.692Z,5.65
2023-03-15T22:35:13.883Z,5.65
2023-03-15T22:40:17.361Z,5.60
2023-03-15T22:45:21.463Z,5.58
2023-03-15T22:50:24.887Z,5.58
2023-03-15T22:55:28.245Z,5.57
2023-03-15T23:00:31.511Z,5.58
2023-03-15T23:05:35.938Z,5.58
2023-03-15T23:10:43.673Z,5.61
2023-03-15T23:15:47.441Z,5.58
2023-03-15T23:20:51.048Z,5.56
2023-03-15T23:25:54.500Z,5.60
2023-03-15T23:31:05.424Z,5.57
2023-03-15T23:36:09.116Z,5.49
2023-03-15T23:41:12.768Z,5.50
2023-03-15T23:46:16.055Z,5.49
2023-03-15T23:51:19.803Z,5.51
2023-03-15T23:56:24.016Z,5.44
